sensor_id;sensor_type;location;lat;lon;timestamp;pressure;altitude;pressure_sealevel;temperature;humidity
7376;BME280;3728;42.266;24.944;2022-12-15T00:00:06;98958.78;;;5.27;100.00
7376;BME280;3728;42.266;24.944;2022-12-15T00:02:53;98962.00;;;5.56;100.00
7376;BME280;3728;42.266;24.944;2022-12-15T00:05:39;98953.53;;;5.32;100.00
7376;BME280;3728;42.266;24.944;2022-12-15T00:08:25;98940.25;;;5.33;100.00
7376;BME280;3728;42.266;24.944;2022-12-15T00:11:11;98931.06;;;5.41;100.00
7376;BME280;3728;42.266;24.944;2022-12-15T00:13:57;98920.69;;;5.41;100.00
7376;BME280;3728;42.266;24.944;2022-12-15T00:16:43;98926.84;;;5.45;100.00
7376;BME280;3728;42.266;24.944;2022-12-15T00:19:29;98909.66;;;5.49;100.00
7376;BME280;3728;42.266;24.944;2022-12-15T00:22:15;98909.47;;;5.45;100.00
7376;BME280;3728;42.266;24.944;2022-12-15T00:25:01;98911.28;;;5.45;100.00
7376;BME280;3728;42.266;24.944;2022-12-15T00:27:47;98904.47;;;5.49;100.00
7376;BME280;3728;42.266;24.944;2022-12-15T00:30:33;98932.22;;;5.72;100.00
7376;BME280;3728;42.266;24.944;2022-12-15T00:33:27;98924.00;;;5.65;100.00
7376;BME280;3728;42.266;24.944;2022-12-15T00:36:13;98922.16;;;5.66;100.00
7376;BME280;3728;42.266;24.944;2022-12-15T00:38:59;98916.03;;;5.75;100.00
7376;BME280;3728;42.266;24.944;2022-12-15T00:41:29;98911.97;;;5.69;100.00
7376;BME280;3728;42.266;24.944;2022-12-15T00:43:57;98914.03;;;5.72;100.00
7376;BME280;3728;42.266;24.944;2022-12-15T00:46:24;98920.69;;;5.97;100.00
7376;BME280;3728;42.266;24.944;2022-12-15T00:49:10;98911.13;;;5.92;100.00
7376;BME280;3728;42.266;24.944;2022-12-15T00:51:57;98896.03;;;5.76;100.00
7376;BME280;3728;42.266;24.944;2022-12-15T00:54:43;98911.22;;;5.87;100.00
7376;BME280;3728;42.266;24.944;2022-12-15T00:57:29;98908.94;;;5.99;100.00
7376;BME280;3728;42.266;24.944;2022-12-15T01:00:15;98894.88;;;5.82;100.00
7376;BME280;3728;42.266;24.944;2022-12-15T01:03:11;98906.56;;;5.84;100.00
7376;BME280;3728;42.266;24.944;2022-12-15T01:05:59;98885.53;;;5.67;100.00
7376;BME280;3728;42.266;24.944;2022-12-15T01:08:48;98889.50;;;5.78;100.00
7376;BME280;3728;42.266;24.944;2022-12-15T01:11:35;98906.91;;;5.96;100.00
7376;BME280;3728;42.266;24.944;2022-12-15T01:14:21;98900.81;;;5.87;100.00
7376;BME280;3728;42.266;24.944;2022-12-15T01:17:08;98906.06;;;5.82;100.00
7376;BME280;3728;42.266;24.944;2022-12-15T01:19:54;98898.91;;;5.93;100.00
7376;BME280;3728;42.266;24.944;2022-12-15T01:22:40;98884.78;;;6.31;100.00
7376;BME280;3728;42.266;24.944;2022-12-15T01:25:09;98869.63;;;5.87;100.00
7376;BME280;3728;42.266;24.944;2022-12-15T01:27:37;98876.19;;;5.66;100.00
7376;BME280;3728;42.266;24.944;2022-12-15T01:30:06;98866.28;;;5.68;100.00
7376;BME280;3728;42.266;24.944;2022-12-15T01:32:34;98867.03;;;5.87;100.00
7376;BME280;3728;42.266;24.944;2022-12-15T01:35:07;98859.34;;;5.96;100.00
7376;BME280;3728;42.266;24.944;2022-12-15T01:37:36;98859.56;;;5.99;100.00
7376;BME280;3728;42.266;24.944;2022-12-15T01:40:05;98868.66;;;5.83;100.00
7376;BME280;3728;42.266;24.944;2022-12-15T01:42:52;98879.56;;;5.85;100.00
7376;BME280;3728;42.266;24.944;2022-12-15T01:48:19;98900.81;;;6.19;100.00
7376;BME280;3728;42.266;24.944;2022-12-15T01:53:48;98876.94;;;6.17;100.00
7376;BME280;3728;42.266;24.944;2022-12-15T01:56:22;98877.91;;;6.22;100.00
7376;BME280;3728;42.266;24.944;2022-12-15T01:58:54;98863.84;;;6.09;100.00
7376;BME280;3728;42.266;24.944;2022-12-15T02:01:23;98882.75;;;6.28;100.00
7376;BME280;3728;42.266;24.944;2022-12-15T02:03:51;98878.31;;;6.42;100.00
7376;BME280;3728;42.266;24.944;2022-12-15T02:06:18;98884.81;;;6.12;100.00
7376;BME280;3728;42.266;24.944;2022-12-15T02:08:53;98902.03;;;6.54;100.00
7376;BME280;3728;42.266;24.944;2022-12-15T02:11:48;98917.06;;;6.11;100.00
7376;BME280;3728;42.266;24.944;2022-12-15T02:29:39;98922.94;;;5.66;100.00
7376;BME280;3728;42.266;24.944;2022-12-15T02:32:19;98908.19;;;5.43;100.00
7376;BME280;3728;42.266;24.944;2022-12-15T02:34:54;98918.94;;;5.55;100.00
7376;BME280;3728;42.266;24.944;2022-12-15T02:37:37;98925.53;;;5.47;100.00
7376;BME280;3728;42.266;24.944;2022-12-15T02:40:08;98911.84;;;5.42;100.00
7376;BME280;3728;42.266;24.944;2022-12-15T02:42:44;98914.91;;;6.00;100.00
7376;BME280;3728;42.266;24.944;2022-12-15T02:45:17;98936.25;;;6.15;100.00
7376;BME280;3728;42.266;24.944;2022-12-15T02:56:28;98955.50;;;5.77;100.00
7376;BME280;3728;42.266;24.944;2022-12-15T02:59:11;98952.34;;;5.80;100.00
7376;BME280;3728;42.266;24.944;2022-12-15T03:01:57;98949.88;;;5.70;100.00
7376;BME280;3728;42.266;24.944;2022-12-15T03:04:28;98939.34;;;5.43;100.00
7376;BME280;3728;42.266;24.944;2022-12-15T03:07:02;98926.78;;;5.31;100.00
7376;BME280;3728;42.266;24.944;2022-12-15T03:09:31;98926.47;;;5.14;100.00
7376;BME280;3728;42.266;24.944;2022-12-15T03:11:59;98926.38;;;5.43;100.00
7376;BME280;3728;42.266;24.944;2022-12-15T03:14:27;98926.84;;;5.45;100.00
7376;BME280;3728;42.266;24.944;2022-12-15T03:16:55;98927.41;;;5.42;100.00
7376;BME280;3728;42.266;24.944;2022-12-15T03:19:22;98915.31;;;5.14;100.00
7376;BME280;3728;42.266;24.944;2022-12-15T03:21:55;98931.44;;;5.34;100.00
7376;BME280;3728;42.266;24.944;2022-12-15T03:24:23;98926.72;;;5.55;100.00
7376;BME280;3728;42.266;24.944;2022-12-15T03:26:50;98913.25;;;5.34;100.00
7376;BME280;3728;42.266;24.944;2022-12-15T03:29:18;98917.75;;;5.05;100.00
7376;BME280;3728;42.266;24.944;2022-12-15T03:31:46;98918.28;;;5.44;100.00
7376;BME280;3728;42.266;24.944;2022-12-15T03:34:16;98914.56;;;5.13;100.00
7376;BME280;3728;42.266;24.944;2022-12-15T03:36:43;98915.88;;;5.11;100.00
7376;BME280;3728;42.266;24.944;2022-12-15T03:39:11;98930.75;;;5.24;100.00
7376;BME280;3728;42.266;24.944;2022-12-15T03:41:38;98934.50;;;5.36;100.00
7376;BME280;3728;42.266;24.944;2022-12-15T03:44:07;98928.97;;;5.01;100.00
7376;BME280;3728;42.266;24.944;2022-12-15T03:46:35;98925.88;;;5.60;100.00
7376;BME280;3728;42.266;24.944;2022-12-15T03:49:03;98923.41;;;5.31;100.00
7376;BME280;3728;42.266;24.944;2022-12-15T03:51:30;98926.13;;;5.21;100.00
7376;BME280;3728;42.266;24.944;2022-12-15T03:53:58;98926.75;;;5.13;100.00
7376;BME280;3728;42.266;24.944;2022-12-15T03:56:25;98944.06;;;4.99;100.00
7376;BME280;3728;42.266;24.944;2022-12-15T03:58:53;98929.72;;;4.82;100.00
7376;BME280;3728;42.266;24.944;2022-12-15T04:01:31;98921.63;;;5.08;100.00
7376;BME280;3728;42.266;24.944;2022-12-15T04:04:00;98932.03;;;5.45;100.00
7376;BME280;3728;42.266;24.944;2022-12-15T04:06:29;98934.31;;;5.09;100.00
7376;BME280;3728;42.266;24.944;2022-12-15T04:08:57;98929.84;;;5.15;100.00
7376;BME280;3728;42.266;24.944;2022-12-15T04:11:24;98926.84;;;5.26;100.00
7376;BME280;3728;42.266;24.944;2022-12-15T04:13:52;98913.78;;;5.13;100.00
7376;BME280;3728;42.266;24.944;2022-12-15T04:16:19;98918.88;;;4.99;100.00
7376;BME280;3728;42.266;24.944;2022-12-15T04:18:47;98910.19;;;5.09;100.00
7376;BME280;3728;42.266;24.944;2022-12-15T04:21:37;98913.25;;;5.16;100.00
7376;BME280;3728;42.266;24.944;2022-12-15T04:24:05;98915.31;;;5.32;100.00
7376;BME280;3728;42.266;24.944;2022-12-15T04:26:51;98920.53;;;5.32;100.00
7376;BME280;3728;42.266;24.944;2022-12-15T04:29:38;98913.88;;;5.26;100.00
7376;BME280;3728;42.266;24.944;2022-12-15T04:32:24;98911.97;;;5.13;100.00
7376;BME280;3728;42.266;24.944;2022-12-15T04:35:15;98924.72;;;5.28;100.00
7376;BME280;3728;42.266;24.944;2022-12-15T04:38:01;98929.34;;;5.13;100.00
7376;BME280;3728;42.266;24.944;2022-12-15T04:40:47;98927.06;;;5.30;100.00
7376;BME280;3728;42.266;24.944;2022-12-15T04:43:34;98900.53;;;5.33;100.00
7376;BME280;3728;42.266;24.944;2022-12-15T04:46:20;98884.81;;;5.06;100.00
7376;BME280;3728;42.266;24.944;2022-12-15T04:49:06;98888.44;;;5.05;100.00
7376;BME280;3728;42.266;24.944;2022-12-15T04:51:52;98907.78;;;5.36;100.00
7376;BME280;3728;42.266;24.944;2022-12-15T04:54:38;98914.84;;;5.68;100.00
7376;BME280;3728;42.266;24.944;2022-12-15T04:57:24;98924.63;;;5.57;100.00
7376;BME280;3728;42.266;24.944;2022-12-15T05:00:11;98946.38;;;5.61;100.00
7376;BME280;3728;42.266;24.944;2022-12-15T05:03:04;98965.19;;;5.53;100.00
7376;BME280;3728;42.266;24.944;2022-12-15T05:05:51;98967.72;;;5.58;100.00
7376;BME280;3728;42.266;24.944;2022-12-15T05:08:37;98960.66;;;5.40;100.00
7376;BME280;3728;42.266;24.944;2022-12-15T05:11:23;98953.38;;;5.61;100.00
7376;BME280;3728;42.266;24.944;2022-12-15T05:14:09;98931.00;;;5.27;100.00
7376;BME280;3728;42.266;24.944;2022-12-15T05:16:58;98935.13;;;5.47;100.00
7376;BME280;3728;42.266;24.944;2022-12-15T05:19:44;98960.06;;;5.48;100.00
7376;BME280;3728;42.266;24.944;2022-12-15T05:22:30;98959.09;;;5.44;100.00
7376;BME280;3728;42.266;24.944;2022-12-15T05:25:16;98954.69;;;5.39;100.00
7376;BME280;3728;42.266;24.944;2022-12-15T05:28:05;98954.16;;;5.42;100.00
7376;BME280;3728;42.266;24.944;2022-12-15T05:30:51;98962.38;;;5.49;100.00
7376;BME280;3728;42.266;24.944;2022-12-15T05:33:37;98958.22;;;5.30;100.00
7376;BME280;3728;42.266;24.944;2022-12-15T05:36:05;98977.69;;;5.51;100.00
7376;BME280;3728;42.266;24.944;2022-12-15T05:38:33;98972.19;;;5.34;100.00
7376;BME280;3728;42.266;24.944;2022-12-15T05:41:01;98967.56;;;5.68;100.00
7376;BME280;3728;42.266;24.944;2022-12-15T05:43:28;98971.22;;;5.48;100.00
7376;BME280;3728;42.266;24.944;2022-12-15T05:46:02;98989.44;;;5.25;100.00
7376;BME280;3728;42.266;24.944;2022-12-15T05:48:29;98983.50;;;5.19;100.00
7376;BME280;3728;42.266;24.944;2022-12-15T05:51:02;98993.34;;;5.22;100.00
7376;BME280;3728;42.266;24.944;2022-12-15T05:53:36;99007.31;;;5.69;100.00
7376;BME280;3728;42.266;24.944;2022-12-15T05:56:07;98993.13;;;5.61;100.00
7376;BME280;3728;42.266;24.944;2022-12-15T05:58:40;98996.16;;;5.26;100.00
7376;BME280;3728;42.266;24.944;2022-12-15T06:01:14;98982.88;;;5.51;100.00
7376;BME280;3728;42.266;24.944;2022-12-15T06:03:43;98979.94;;;5.58;100.00
7376;BME280;3728;42.266;24.944;2022-12-15T06:06:11;98981.50;;;5.96;100.00
7376;BME280;3728;42.266;24.944;2022-12-15T06:08:40;98993.09;;;5.85;100.00
7376;BME280;3728;42.266;24.944;2022-12-15T06:11:13;99017.94;;;6.28;100.00
7376;BME280;3728;42.266;24.944;2022-12-15T06:13:42;99019.72;;;5.95;100.00
7376;BME280;3728;42.266;24.944;2022-12-15T06:16:13;99004.59;;;5.79;100.00
7376;BME280;3728;42.266;24.944;2022-12-15T06:18:59;99006.06;;;5.42;100.00
7376;BME280;3728;42.266;24.944;2022-12-15T06:21:30;99005.81;;;5.44;100.00
7376;BME280;3728;42.266;24.944;2022-12-15T06:24:01;99005.50;;;5.69;100.00
7376;BME280;3728;42.266;24.944;2022-12-15T06:26:33;99021.97;;;5.60;100.00
7376;BME280;3728;42.266;24.944;2022-12-15T06:29:04;99021.56;;;5.71;100.00
7376;BME280;3728;42.266;24.944;2022-12-15T06:31:35;99032.38;;;5.60;100.00
7376;BME280;3728;42.266;24.944;2022-12-15T06:34:06;99031.31;;;6.03;100.00
7376;BME280;3728;42.266;24.944;2022-12-15T06:36:35;99031.22;;;5.89;100.00
7376;BME280;3728;42.266;24.944;2022-12-15T06:39:04;99031.06;;;5.81;100.00
7376;BME280;3728;42.266;24.944;2022-12-15T06:41:34;99028.75;;;5.79;100.00
7376;BME280;3728;42.266;24.944;2022-12-15T06:44:02;99025.91;;;5.99;100.00
7376;BME280;3728;42.266;24.944;2022-12-15T06:46:31;99044.94;;;6.13;100.00
7376;BME280;3728;42.266;24.944;2022-12-15T06:49:01;99041.19;;;6.19;100.00
7376;BME280;3728;42.266;24.944;2022-12-15T06:51:28;99038.28;;;6.07;100.00
7376;BME280;3728;42.266;24.944;2022-12-15T06:53:56;99048.25;;;6.00;100.00
7376;BME280;3728;42.266;24.944;2022-12-15T06:56:30;99063.53;;;6.02;100.00
7376;BME280;3728;42.266;24.944;2022-12-15T06:59:03;99072.25;;;5.92;100.00
7376;BME280;3728;42.266;24.944;2022-12-15T07:01:33;99071.41;;;6.15;100.00
7376;BME280;3728;42.266;24.944;2022-12-15T07:04:01;99073.66;;;6.03;100.00
7376;BME280;3728;42.266;24.944;2022-12-15T07:06:34;99067.53;;;6.13;100.00
7376;BME280;3728;42.266;24.944;2022-12-15T07:09:05;99055.38;;;6.08;100.00
7376;BME280;3728;42.266;24.944;2022-12-15T07:11:40;99063.38;;;6.49;100.00
7376;BME280;3728;42.266;24.944;2022-12-15T07:14:08;99062.56;;;6.35;100.00
7376;BME280;3728;42.266;24.944;2022-12-15T07:16:36;99073.91;;;6.58;100.00
7376;BME280;3728;42.266;24.944;2022-12-15T07:19:04;99093.75;;;6.54;100.00
7376;BME280;3728;42.266;24.944;2022-12-15T07:21:32;99097.31;;;6.58;100.00
7376;BME280;3728;42.266;24.944;2022-12-15T07:23:59;99090.81;;;6.42;100.00
7376;BME280;3728;42.266;24.944;2022-12-15T07:26:28;99090.84;;;6.55;100.00
7376;BME280;3728;42.266;24.944;2022-12-15T07:28:56;99084.63;;;6.38;100.00
7376;BME280;3728;42.266;24.944;2022-12-15T07:31:23;99081.75;;;6.20;100.00
7376;BME280;3728;42.266;24.944;2022-12-15T07:33:51;99090.19;;;6.31;100.00
7376;BME280;3728;42.266;24.944;2022-12-15T07:36:20;99111.09;;;6.58;100.00
7376;BME280;3728;42.266;24.944;2022-12-15T07:38:48;99108.69;;;6.80;100.00
7376;BME280;3728;42.266;24.944;2022-12-15T07:41:18;99102.13;;;6.83;100.00
7376;BME280;3728;42.266;24.944;2022-12-15T07:43:46;99103.38;;;6.53;100.00
7376;BME280;3728;42.266;24.944;2022-12-15T07:46:16;99121.88;;;6.52;100.00
7376;BME280;3728;42.266;24.944;2022-12-15T07:48:44;99109.97;;;6.64;100.00
7376;BME280;3728;42.266;24.944;2022-12-15T07:51:16;99105.09;;;6.76;100.00
7376;BME280;3728;42.266;24.944;2022-12-15T07:53:50;99111.69;;;7.20;100.00
7376;BME280;3728;42.266;24.944;2022-12-15T07:56:18;99106.69;;;6.91;100.00
7376;BME280;3728;42.266;24.944;2022-12-15T07:58:47;99116.31;;;6.90;100.00
7376;BME280;3728;42.266;24.944;2022-12-15T08:01:15;99119.41;;;7.38;100.00
7376;BME280;3728;42.266;24.944;2022-12-15T08:03:43;99113.59;;;7.28;100.00
7376;BME280;3728;42.266;24.944;2022-12-15T08:06:12;99109.56;;;7.22;100.00
7376;BME280;3728;42.266;24.944;2022-12-15T08:08:43;99117.84;;;7.37;100.00
7376;BME280;3728;42.266;24.944;2022-12-15T08:11:19;99106.97;;;7.90;100.00
7376;BME280;3728;42.266;24.944;2022-12-15T08:13:49;99102.91;;;7.84;100.00
7376;BME280;3728;42.266;24.944;2022-12-15T08:16:38;99094.81;;;7.72;100.00
7376;BME280;3728;42.266;24.944;2022-12-15T08:19:08;99117.56;;;7.80;100.00
7376;BME280;3728;42.266;24.944;2022-12-15T08:21:39;99109.75;;;7.80;100.00
7376;BME280;3728;42.266;24.944;2022-12-15T08:24:08;99102.44;;;7.82;100.00
7376;BME280;3728;42.266;24.944;2022-12-15T08:26:36;99111.41;;;8.03;100.00
7376;BME280;3728;42.266;24.944;2022-12-15T08:29:13;99129.66;;;8.03;100.00
7376;BME280;3728;42.266;24.944;2022-12-15T08:32:01;99141.88;;;8.16;100.00
7376;BME280;3728;42.266;24.944;2022-12-15T08:34:29;99143.22;;;8.41;98.97
7376;BME280;3728;42.266;24.944;2022-12-15T08:36:56;99133.22;;;8.56;100.00
7376;BME280;3728;42.266;24.944;2022-12-15T08:39:24;99115.13;;;8.24;100.00
7376;BME280;3728;42.266;24.944;2022-12-15T08:41:54;99133.97;;;8.21;100.00
7376;BME280;3728;42.266;24.944;2022-12-15T08:44:22;99121.56;;;8.40;100.00
7376;BME280;3728;42.266;24.944;2022-12-15T08:46:49;99122.94;;;8.24;100.00
7376;BME280;3728;42.266;24.944;2022-12-15T08:49:17;99134.34;;;8.86;100.00
7376;BME280;3728;42.266;24.944;2022-12-15T08:51:48;99131.78;;;9.17;98.27
7376;BME280;3728;42.266;24.944;2022-12-15T08:54:16;99132.31;;;9.75;93.49
7376;BME280;3728;42.266;24.944;2022-12-15T08:56:45;99132.06;;;9.85;92.52
7376;BME280;3728;42.266;24.944;2022-12-15T08:59:12;99127.50;;;10.08;91.32
7376;BME280;3728;42.266;24.944;2022-12-15T09:01:40;99131.06;;;10.12;90.20
7376;BME280;3728;42.266;24.944;2022-12-15T09:04:09;99138.31;;;10.58;87.48
7376;BME280;3728;42.266;24.944;2022-12-15T09:06:36;99142.13;;;11.03;85.69
7376;BME280;3728;42.266;24.944;2022-12-15T09:09:07;99136.00;;;10.99;86.37
7376;BME280;3728;42.266;24.944;2022-12-15T09:11:37;99135.03;;;11.21;84.41
7376;BME280;3728;42.266;24.944;2022-12-15T09:14:05;99120.69;;;11.18;86.11
7376;BME280;3728;42.266;24.944;2022-12-15T09:16:33;99125.75;;;11.70;82.83
7376;BME280;3728;42.266;24.944;2022-12-15T09:19:01;99129.28;;;12.03;78.67
7376;BME280;3728;42.266;24.944;2022-12-15T09:21:29;99122.84;;;11.62;81.36
7376;BME280;3728;42.266;24.944;2022-12-15T09:23:59;99130.84;;;11.75;82.36
7376;BME280;3728;42.266;24.944;2022-12-15T09:26:29;99128.78;;;12.09;78.30
7376;BME280;3728;42.266;24.944;2022-12-15T09:28:59;99133.78;;;11.64;80.46
7376;BME280;3728;42.266;24.944;2022-12-15T09:31:32;99139.97;;;11.68;79.83
7376;BME280;3728;42.266;24.944;2022-12-15T09:34:02;99143.69;;;11.68;80.16
7376;BME280;3728;42.266;24.944;2022-12-15T09:36:30;99136.19;;;11.87;80.51
7376;BME280;3728;42.266;24.944;2022-12-15T09:38:59;99134.28;;;11.96;79.50
7376;BME280;3728;42.266;24.944;2022-12-15T09:41:34;99127.25;;;12.50;80.33
7376;BME280;3728;42.266;24.944;2022-12-15T09:44:13;99119.78;;;13.26;76.37
7376;BME280;3728;42.266;24.944;2022-12-15T09:49:57;99135.56;;;13.74;70.80
7376;BME280;3728;42.266;24.944;2022-12-15T09:52:32;99122.41;;;13.05;73.96
7376;BME280;3728;42.266;24.944;2022-12-15T09:55:19;99135.31;;;12.98;75.00
7376;BME280;3728;42.266;24.944;2022-12-15T09:57:57;99134.69;;;12.68;77.54
7376;BME280;3728;42.266;24.944;2022-12-15T10:00:39;99143.78;;;12.50;78.14
7376;BME280;3728;42.266;24.944;2022-12-15T10:03:58;99140.41;;;12.29;78.59
7376;BME280;3728;42.266;24.944;2022-12-15T10:07:09;99156.53;;;12.40;76.16
7376;BME280;3728;42.266;24.944;2022-12-15T10:09:46;99152.59;;;12.25;78.06
7376;BME280;3728;42.266;24.944;2022-12-15T10:12:21;99148.91;;;12.26;79.33
7376;BME280;3728;42.266;24.944;2022-12-15T10:15:23;99145.13;;;12.35;77.53
7376;BME280;3728;42.266;24.944;2022-12-15T10:18:28;99137.13;;;12.53;77.71
7376;BME280;3728;42.266;24.944;2022-12-15T10:21:10;99143.91;;;12.33;80.28
7376;BME280;3728;42.266;24.944;2022-12-15T10:23:41;99146.66;;;12.16;81.72
7376;BME280;3728;42.266;24.944;2022-12-15T10:26:20;99138.78;;;12.16;82.46
7376;BME280;3728;42.266;24.944;2022-12-15T10:29:05;99130.47;;;12.34;79.28
7376;BME280;3728;42.266;24.944;2022-12-15T10:31:55;99133.28;;;12.29;80.84
7376;BME280;3728;42.266;24.944;2022-12-15T10:34:29;99142.31;;;12.61;79.85
7376;BME280;3728;42.266;24.944;2022-12-15T10:36:59;99142.63;;;12.80;78.20
7376;BME280;3728;42.266;24.944;2022-12-15T10:39:41;99134.63;;;12.56;78.64
7376;BME280;3728;42.266;24.944;2022-12-15T10:44:45;99134.53;;;12.85;79.31
7376;BME280;3728;42.266;24.944;2022-12-15T10:49:45;99129.25;;;13.06;77.49
7376;BME280;3728;42.266;24.944;2022-12-15T10:52:22;99131.84;;;13.39;75.83
7376;BME280;3728;42.266;24.944;2022-12-15T10:54:58;99136.00;;;14.00;75.33
7376;BME280;3728;42.266;24.944;2022-12-15T10:57:28;99135.53;;;14.74;73.35
7376;BME280;3728;42.266;24.944;2022-12-15T11:02:52;99141.25;;;16.17;61.65
7376;BME280;3728;42.266;24.944;2022-12-15T11:05:21;99150.56;;;16.84;59.01
7376;BME280;3728;42.266;24.944;2022-12-15T11:07:50;99159.13;;;16.77;59.96
7376;BME280;3728;42.266;24.944;2022-12-15T11:10:26;99145.06;;;16.92;59.23
7376;BME280;3728;42.266;24.944;2022-12-15T11:13:20;99157.34;;;17.23;56.08
7376;BME280;3728;42.266;24.944;2022-12-15T11:15:52;99145.84;;;16.55;57.46
7376;BME280;3728;42.266;24.944;2022-12-15T11:21:15;99147.69;;;15.22;65.28
7376;BME280;3728;42.266;24.944;2022-12-15T11:23:58;99144.38;;;15.25;64.82
7376;BME280;3728;42.266;24.944;2022-12-15T11:26:57;99155.63;;;15.38;62.17
7376;BME280;3728;42.266;24.944;2022-12-15T11:29:57;99163.16;;;15.08;65.23
7376;BME280;3728;42.266;24.944;2022-12-15T11:32:48;99154.31;;;15.16;66.54
7376;BME280;3728;42.266;24.944;2022-12-15T11:41:39;99166.38;;;16.61;58.43
7376;BME280;3728;42.266;24.944;2022-12-15T11:47:11;99167.09;;;17.19;57.00
7376;BME280;3728;42.266;24.944;2022-12-15T11:58:19;99177.31;;;16.25;58.29
7376;BME280;3728;42.266;24.944;2022-12-15T12:01:12;99177.22;;;16.21;57.83
7376;BME280;3728;42.266;24.944;2022-12-15T12:04:19;99178.94;;;16.14;59.08
7376;BME280;3728;42.266;24.944;2022-12-15T12:07:07;99176.84;;;15.88;61.16
7376;BME280;3728;42.266;24.944;2022-12-15T12:12:42;99169.38;;;16.44;60.42
7376;BME280;3728;42.266;24.944;2022-12-15T12:18:20;99180.66;;;17.18;57.52
7376;BME280;3728;42.266;24.944;2022-12-15T12:21:15;99184.78;;;16.96;56.90
7376;BME280;3728;42.266;24.944;2022-12-15T12:23:59;99191.84;;;16.88;56.13
7376;BME280;3728;42.266;24.944;2022-12-15T12:26:37;99188.78;;;16.67;56.73
7376;BME280;3728;42.266;24.944;2022-12-15T12:29:19;99185.31;;;16.48;59.31
7376;BME280;3728;42.266;24.944;2022-12-15T12:35:14;99187.03;;;16.75;59.75
7376;BME280;3728;42.266;24.944;2022-12-15T12:38:09;99187.28;;;17.08;59.16
7376;BME280;3728;42.266;24.944;2022-12-15T12:43:30;99197.75;;;17.43;66.76
7376;BME280;3728;42.266;24.944;2022-12-15T12:51:34;99216.22;;;18.33;53.72
7376;BME280;3728;42.266;24.944;2022-12-15T12:59:41;99228.16;;;19.06;49.12
7376;BME280;3728;42.266;24.944;2022-12-15T13:07:35;99237.94;;;18.42;51.38
7376;BME280;3728;42.266;24.944;2022-12-15T13:10:17;99240.09;;;18.33;51.12
7376;BME280;3728;42.266;24.944;2022-12-15T13:12:49;99237.94;;;18.42;52.53
7376;BME280;3728;42.266;24.944;2022-12-15T13:18:15;99246.16;;;18.34;51.78
7376;BME280;3728;42.266;24.944;2022-12-15T13:20:54;99244.63;;;18.33;52.32
7376;BME280;3728;42.266;24.944;2022-12-15T13:42:13;99268.97;;;18.94;50.89
7376;BME280;3728;42.266;24.944;2022-12-15T13:44:54;99267.63;;;18.52;53.30
7376;BME280;3728;42.266;24.944;2022-12-15T13:47:31;99268.53;;;18.36;53.43
7376;BME280;3728;42.266;24.944;2022-12-15T13:50:05;99272.69;;;18.11;54.55
7376;BME280;3728;42.266;24.944;2022-12-15T13:52:48;99273.94;;;17.95;54.74
7376;BME280;3728;42.266;24.944;2022-12-15T13:55:50;99274.59;;;17.65;55.38
7376;BME280;3728;42.266;24.944;2022-12-15T13:58:23;99272.19;;;17.57;56.69
7376;BME280;3728;42.266;24.944;2022-12-15T14:00:57;99281.19;;;17.75;55.47
7376;BME280;3728;42.266;24.944;2022-12-15T14:03:29;99284.44;;;18.10;53.47
7376;BME280;3728;42.266;24.944;2022-12-15T14:05:58;99268.53;;;17.46;56.03
7376;BME280;3728;42.266;24.944;2022-12-15T14:08:28;99271.91;;;17.04;57.94
7376;BME280;3728;42.266;24.944;2022-12-15T14:10:58;99277.63;;;17.06;57.30
7376;BME280;3728;42.266;24.944;2022-12-15T14:13:42;99266.47;;;16.97;57.56
7376;BME280;3728;42.266;24.944;2022-12-15T14:16:21;99262.19;;;16.08;62.58
7376;BME280;3728;42.266;24.944;2022-12-15T14:21:56;99280.94;;;15.16;69.02
7376;BME280;3728;42.266;24.944;2022-12-15T14:24:30;99284.97;;;14.86;71.15
7376;BME280;3728;42.266;24.944;2022-12-15T14:27:07;99282.38;;;14.62;73.06
7376;BME280;3728;42.266;24.944;2022-12-15T14:29:34;99279.53;;;14.30;75.13
7376;BME280;3728;42.266;24.944;2022-12-15T14:32:02;99278.81;;;13.97;76.91
7376;BME280;3728;42.266;24.944;2022-12-15T14:34:36;99282.03;;;13.58;78.27
7376;BME280;3728;42.266;24.944;2022-12-15T14:37:14;99290.94;;;13.33;79.95
7376;BME280;3728;42.266;24.944;2022-12-15T14:39:46;99282.22;;;13.20;81.30
7376;BME280;3728;42.266;24.944;2022-12-15T14:42:26;99298.19;;;13.15;80.42
7376;BME280;3728;42.266;24.944;2022-12-15T14:44:55;99295.38;;;12.99;80.59
7376;BME280;3728;42.266;24.944;2022-12-15T14:49:56;99307.75;;;12.70;82.08
7376;BME280;3728;42.266;24.944;2022-12-15T14:52:36;99317.97;;;12.71;81.82
7376;BME280;3728;42.266;24.944;2022-12-15T14:57:53;99317.31;;;12.45;83.05
7376;BME280;3728;42.266;24.944;2022-12-15T15:00:28;99316.97;;;12.55;82.59
7376;BME280;3728;42.266;24.944;2022-12-15T15:08:32;99323.78;;;12.10;83.65
7376;BME280;3728;42.266;24.944;2022-12-15T15:14:03;99329.44;;;11.65;86.71
7376;BME280;3728;42.266;24.944;2022-12-15T15:16:38;99335.28;;;11.45;87.26
7376;BME280;3728;42.266;24.944;2022-12-15T15:19:06;99337.94;;;11.37;88.19
7376;BME280;3728;42.266;24.944;2022-12-15T15:21:37;99344.72;;;11.29;88.09
7376;BME280;3728;42.266;24.944;2022-12-15T15:26:41;99342.97;;;10.99;90.44
7376;BME280;3728;42.266;24.944;2022-12-15T15:29:32;99350.84;;;11.08;90.74
7376;BME280;3728;42.266;24.944;2022-12-15T15:32:24;99350.56;;;11.09;90.71
7376;BME280;3728;42.266;24.944;2022-12-15T15:34:51;99355.63;;;10.97;91.60
7376;BME280;3728;42.266;24.944;2022-12-15T15:37:23;99356.41;;;11.06;94.14
7376;BME280;3728;42.266;24.944;2022-12-15T15:39:54;99360.09;;;11.05;93.86
7376;BME280;3728;42.266;24.944;2022-12-15T15:42:22;99357.16;;;10.98;93.46
7376;BME280;3728;42.266;24.944;2022-12-15T15:44:57;99371.44;;;10.83;93.70
7376;BME280;3728;42.266;24.944;2022-12-15T15:47:26;99374.19;;;10.70;93.91
7376;BME280;3728;42.266;24.944;2022-12-15T15:49:57;99379.88;;;10.72;94.73
7376;BME280;3728;42.266;24.944;2022-12-15T15:52:27;99378.63;;;10.61;94.56
7376;BME280;3728;42.266;24.944;2022-12-15T15:54:57;99379.38;;;10.53;94.01
7376;BME280;3728;42.266;24.944;2022-12-15T15:57:26;99375.53;;;10.59;93.58
7376;BME280;3728;42.266;24.944;2022-12-15T15:59:57;99378.63;;;10.61;93.02
7376;BME280;3728;42.266;24.944;2022-12-15T16:02:26;99382.63;;;10.58;93.72
7376;BME280;3728;42.266;24.944;2022-12-15T16:04:56;99379.16;;;10.41;93.23